sensor_id;sensor_type;location;lat;lon;timestamp;pressure;altitude;pressure_sealevel;temperature;humidity
48027;BME280;50714;49.208;5.364;2023-07-20T00:07:28;99455.41;;;18.09;53.99
48027;BME280;50714;49.208;5.364;2023-07-20T00:17:29;99453.34;;;17.99;54.58
48027;BME280;50714;49.208;5.364;2023-07-20T00:27:29;99456.78;;;17.90;54.69
48027;BME280;50714;49.208;5.364;2023-07-20T00:37:29;99449.84;;;17.82;55.01
48027;BME280;50714;49.208;5.364;2023-07-20T00:47:31;99454.63;;;17.75;55.38
48027;BME280;50714;49.208;5.364;2023-07-20T00:57:32;99454.72;;;17.63;55.39
48027;BME280;50714;49.208;5.364;2023-07-20T01:07:37;99447.13;;;17.49;56.17
48027;BME280;50714;49.208;5.364;2023-07-20T01:17:39;99446.63;;;17.35;56.20
48027;BME280;50714;49.208;5.364;2023-07-20T01:28:00;99443.91;;;17.18;58.11
48027;BME280;50714;49.208;5.364;2023-07-20T01:38:08;99446.72;;;17.07;56.51
48027;BME280;50714;49.208;5.364;2023-07-20T01:48:10;99435.69;;;16.85;57.26
48027;BME280;50714;49.208;5.364;2023-07-20T01:58:10;99435.84;;;16.78;57.71
48027;BME280;50714;49.208;5.364;2023-07-20T02:08:11;99438.06;;;16.64;57.73
48027;BME280;50714;49.208;5.364;2023-07-20T02:18:11;99430.16;;;16.51;57.92
48027;BME280;50714;49.208;5.364;2023-07-20T02:28:14;99418.59;;;16.32;58.46
48027;BME280;50714;49.208;5.364;2023-07-20T02:38:15;99418.06;;;16.19;58.14
48027;BME280;50714;49.208;5.364;2023-07-20T02:48:15;99421.91;;;16.06;58.57
48027;BME280;50714;49.208;5.364;2023-07-20T02:58:15;99423.00;;;15.93;59.01
48027;BME280;50714;49.208;5.364;2023-07-20T03:08:15;99425.84;;;15.87;59.32
48027;BME280;50714;49.208;5.364;2023-07-20T03:18:16;99431.19;;;15.82;59.68
48027;BME280;50714;49.208;5.364;2023-07-20T03:28:16;99428.22;;;15.72;60.47
48027;BME280;50714;49.208;5.364;2023-07-20T03:38:16;99423.28;;;15.68;59.83
48027;BME280;50714;49.208;5.364;2023-07-20T03:48:22;99420.44;;;15.63;61.08
48027;BME280;50714;49.208;5.364;2023-07-20T03:58:22;99427.75;;;15.51;60.31
48027;BME280;50714;49.208;5.364;2023-07-20T04:08:23;99447.50;;;15.35;60.24
48027;BME280;50714;49.208;5.364;2023-07-20T04:18:24;99443.38;;;15.32;60.89
48027;BME280;50714;49.208;5.364;2023-07-20T04:28:25;99449.72;;;15.26;60.80
48027;BME280;50714;49.208;5.364;2023-07-20T04:38:25;99444.41;;;15.08;61.13
48027;BME280;50714;49.208;5.364;2023-07-20T04:48:26;99445.09;;;15.15;61.77
48027;BME280;50714;49.208;5.364;2023-07-20T04:58:26;99446.88;;;15.21;62.56
48027;BME280;50714;49.208;5.364;2023-07-20T05:08:27;99435.09;;;15.51;62.60
48027;BME280;50714;49.208;5.364;2023-07-20T05:18:27;99438.66;;;15.75;62.99
48027;BME280;50714;49.208;5.364;2023-07-20T05:28:27;99439.69;;;15.97;63.03
48027;BME280;50714;49.208;5.364;2023-07-20T05:38:28;99443.28;;;16.26;63.14
48027;BME280;50714;49.208;5.364;2023-07-20T05:48:28;99449.81;;;16.53;63.49
48027;BME280;50714;49.208;5.364;2023-07-20T05:58:28;99448.34;;;16.91;63.13
48027;BME280;50714;49.208;5.364;2023-07-20T06:08:31;99448.88;;;17.21;62.81
48027;BME280;50714;49.208;5.364;2023-07-20T06:18:31;99432.06;;;17.63;63.37
48027;BME280;50714;49.208;5.364;2023-07-20T06:28:31;99447.88;;;17.99;62.95
48027;BME280;50714;49.208;5.364;2023-07-20T06:38:32;99445.69;;;18.40;62.62
48027;BME280;50714;49.208;5.364;2023-07-20T06:48:32;99449.44;;;18.83;62.51
48027;BME280;50714;49.208;5.364;2023-07-20T06:58:33;99450.31;;;19.20;62.22
48027;BME280;50714;49.208;5.364;2023-07-20T07:08:35;99454.47;;;19.55;61.85
48027;BME280;50714;49.208;5.364;2023-07-20T07:18:36;99454.16;;;19.93;61.68
48027;BME280;50714;49.208;5.364;2023-07-20T07:28:37;99452.97;;;20.31;60.71
48027;BME280;50714;49.208;5.364;2023-07-20T07:38:37;99452.28;;;20.61;60.27
48027;BME280;50714;49.208;5.364;2023-07-20T07:48:38;99459.75;;;20.76;59.52
48027;BME280;50714;49.208;5.364;2023-07-20T07:58:38;99447.16;;;21.00;59.11
48027;BME280;50714;49.208;5.364;2023-07-20T08:08:39;99458.47;;;21.44;58.62
48027;BME280;50714;49.208;5.364;2023-07-20T08:18:39;99451.25;;;21.84;57.86
48027;BME280;50714;49.208;5.364;2023-07-20T08:28:39;99446.47;;;22.35;56.58
48027;BME280;50714;49.208;5.364;2023-07-20T08:38:40;99432.50;;;22.71;55.66
48027;BME280;50714;49.208;5.364;2023-07-20T08:48:41;99440.69;;;23.25;54.53
48027;BME280;50714;49.208;5.364;2023-07-20T08:58:43;99432.34;;;23.93;53.03
48027;BME280;50714;49.208;5.364;2023-07-20T09:08:43;99439.34;;;24.33;52.08
48027;BME280;50714;49.208;5.364;2023-07-20T09:18:44;99439.84;;;25.15;49.42
48027;BME280;50714;49.208;5.364;2023-07-20T09:28:49;99432.09;;;26.24;49.20
48027;BME280;50714;49.208;5.364;2023-07-20T09:38:50;99436.84;;;27.45;45.90
48027;BME280;50714;49.208;5.364;2023-07-20T09:48:53;99424.81;;;26.00;48.05
48027;BME280;50714;49.208;5.364;2023-07-20T09:58:54;99423.59;;;29.90;40.74
48027;BME280;50714;49.208;5.364;2023-07-20T10:08:56;99417.25;;;31.52;41.16
48027;BME280;50714;49.208;5.364;2023-07-20T10:29:33;99404.44;;;31.72;36.27
48027;BME280;50714;49.208;5.364;2023-07-20T10:39:34;99389.56;;;32.53;37.56
48027;BME280;50714;49.208;5.364;2023-07-20T10:49:35;99372.88;;;34.63;34.48
48027;BME280;50714;49.208;5.364;2023-07-20T10:59:37;99363.38;;;32.58;33.30
48027;BME280;50714;49.208;5.364;2023-07-20T11:09:38;99355.72;;;31.82;33.95
48027;BME280;50714;49.208;5.364;2023-07-20T11:19:39;99349.53;;;31.64;34.45
48027;BME280;50714;49.208;5.364;2023-07-20T11:29:45;99349.75;;;33.25;32.79
48027;BME280;50714;49.208;5.364;2023-07-20T11:39:45;99342.19;;;36.19;29.52
48027;BME280;50714;49.208;5.364;2023-07-20T11:49:46;99339.38;;;36.19;27.53
48027;BME280;50714;49.208;5.364;2023-07-20T11:59:58;99327.88;;;33.42;28.53
48027;BME280;50714;49.208;5.364;2023-07-20T12:10:09;99318.28;;;32.07;28.88
48027;BME280;50714;49.208;5.364;2023-07-20T12:20:10;99306.88;;;31.18;30.23
48027;BME280;50714;49.208;5.364;2023-07-20T12:30:11;99291.34;;;29.84;31.05
48027;BME280;50714;49.208;5.364;2023-07-20T12:40:11;99280.50;;;29.15;31.43
48027;BME280;50714;49.208;5.364;2023-07-20T12:50:12;99281.38;;;28.38;32.25
48027;BME280;50714;49.208;5.364;2023-07-20T13:00:14;99275.44;;;27.96;31.83
48027;BME280;50714;49.208;5.364;2023-07-20T13:10:15;99267.22;;;27.74;32.51
48027;BME280;50714;49.208;5.364;2023-07-20T13:20:15;99258.06;;;27.25;32.65
48027;BME280;50714;49.208;5.364;2023-07-20T13:30:15;99252.31;;;26.91;33.14
48027;BME280;50714;49.208;5.364;2023-07-20T13:40:19;99239.47;;;26.72;33.42
48027;BME280;50714;49.208;5.364;2023-07-20T13:50:19;99226.34;;;26.56;33.89
48027;BME280;50714;49.208;5.364;2023-07-20T14:00:20;99222.56;;;26.52;33.66
48027;BME280;50714;49.208;5.364;2023-07-20T14:10:20;99216.72;;;26.53;33.75
48027;BME280;50714;49.208;5.364;2023-07-20T14:20:21;99211.56;;;26.60;34.06
48027;BME280;50714;49.208;5.364;2023-07-20T14:30:21;99195.59;;;26.57;33.96
48027;BME280;50714;49.208;5.364;2023-07-20T14:40:21;99183.38;;;26.58;34.17
48027;BME280;50714;49.208;5.364;2023-07-20T14:50:22;99187.97;;;26.63;33.53
48027;BME280;50714;49.208;5.364;2023-07-20T15:00:22;99174.59;;;26.56;33.68
48027;BME280;50714;49.208;5.364;2023-07-20T15:10:23;99171.59;;;26.44;33.60
48027;BME280;50714;49.208;5.364;2023-07-20T15:20:23;99160.97;;;26.37;33.79
48027;BME280;50714;49.208;5.364;2023-07-20T15:30:23;99160.97;;;26.24;34.11
48027;BME280;50714;49.208;5.364;2023-07-20T15:40:24;99152.06;;;26.04;33.89
48027;BME280;50714;49.208;5.364;2023-07-20T15:50:24;99135.91;;;25.98;34.60
48027;BME280;50714;49.208;5.364;2023-07-20T16:00:24;99145.50;;;26.00;33.93
48027;BME280;50714;49.208;5.364;2023-07-20T16:10:25;99143.75;;;25.82;34.15
48027;BME280;50714;49.208;5.364;2023-07-20T16:20:26;99132.31;;;25.61;34.34
48027;BME280;50714;49.208;5.364;2023-07-20T16:30:30;99128.00;;;25.55;34.17
48027;BME280;50714;49.208;5.364;2023-07-20T16:40:30;99123.25;;;25.47;34.64
48027;BME280;50714;49.208;5.364;2023-07-20T16:50:30;99099.41;;;25.37;34.56
48027;BME280;50714;49.208;5.364;2023-07-20T17:00:31;99109.53;;;25.28;34.47
48027;BME280;50714;49.208;5.364;2023-07-20T17:10:31;99105.06;;;25.19;34.55
48027;BME280;50714;49.208;5.364;2023-07-20T17:20:32;99111.09;;;25.07;35.03
48027;BME280;50714;49.208;5.364;2023-07-20T17:30:34;99104.75;;;24.93;35.59
48027;BME280;50714;49.208;5.364;2023-07-20T17:40:34;99103.94;;;24.78;36.12
48027;BME280;50714;49.208;5.364;2023-07-20T17:50:34;99098.41;;;24.65;36.44
48027;BME280;50714;49.208;5.364;2023-07-20T18:00:35;99093.69;;;24.52;36.61
48027;BME280;50714;49.208;5.364;2023-07-20T18:10:36;99095.09;;;24.35;36.75
48027;BME280;50714;49.208;5.364;2023-07-20T18:20:36;99083.78;;;24.18;37.68
48027;BME280;50714;49.208;5.364;2023-07-20T18:30:36;99086.09;;;23.97;37.45
48027;BME280;50714;49.208;5.364;2023-07-20T18:40:37;99086.88;;;23.84;38.29
48027;BME280;50714;49.208;5.364;2023-07-20T18:50:37;99079.56;;;23.74;38.96
48027;BME280;50714;49.208;5.364;2023-07-20T19:00:37;99092.19;;;23.62;39.76
48027;BME280;50714;49.208;5.364;2023-07-20T19:10:38;99090.78;;;23.40;40.17
48027;BME280;50714;49.208;5.364;2023-07-20T19:20:38;99088.84;;;23.22;40.86
48027;BME280;50714;49.208;5.364;2023-07-20T19:30:39;99078.84;;;23.07;41.85
48027;BME280;50714;49.208;5.364;2023-07-20T19:40:39;99083.56;;;22.83;42.35
48027;BME280;50714;49.208;5.364;2023-07-20T19:50:43;99087.13;;;22.60;43.21
48027;BME280;50714;49.208;5.364;2023-07-20T20:00:44;99096.94;;;22.42;42.62
48027;BME280;50714;49.208;5.364;2023-07-20T20:10:44;99102.03;;;22.25;43.33
48027;BME280;50714;49.208;5.364;2023-07-20T20:20:45;99094.50;;;22.06;43.85
48027;BME280;50714;49.208;5.364;2023-07-20T20:30:47;99091.28;;;21.94;43.88
48027;BME280;50714;49.208;5.364;2023-07-20T20:40:50;99093.91;;;21.75;44.03
48027;BME280;50714;49.208;5.364;2023-07-20T20:50:51;99094.81;;;21.66;44.51
48027;BME280;50714;49.208;5.364;2023-07-20T21:00:52;99087.25;;;21.48;44.55
48027;BME280;50714;49.208;5.364;2023-07-20T21:10:52;99085.94;;;21.35;44.93
48027;BME280;50714;49.208;5.364;2023-07-20T21:20:53;99079.94;;;21.28;45.13
48027;BME280;50714;49.208;5.364;2023-07-20T21:31:01;99081.38;;;21.20;45.89
48027;BME280;50714;49.208;5.364;2023-07-20T21:41:02;99084.38;;;21.19;46.34
48027;BME280;50714;49.208;5.364;2023-07-20T21:51:02;99081.06;;;21.17;46.25
48027;BME280;50714;49.208;5.364;2023-07-20T22:01:02;99098.13;;;21.08;46.72
48027;BME280;50714;49.208;5.364;2023-07-20T22:11:05;99090.25;;;20.92;46.99
48027;BME280;50714;49.208;5.364;2023-07-20T22:21:06;99089.22;;;20.77;48.05
48027;BME280;50714;49.208;5.364;2023-07-20T22:31:06;99092.81;;;20.68;48.78
48027;BME280;50714;49.208;5.364;2023-07-20T22:41:06;99086.25;;;20.59;49.63
48027;BME280;50714;49.208;5.364;2023-07-20T22:51:07;99088.72;;;20.35;51.26
48027;BME280;50714;49.208;5.364;2023-07-20T23:01:11;99101.66;;;20.24;53.32
48027;BME280;50714;49.208;5.364;2023-07-20T23:11:11;99099.72;;;20.20;54.61
48027;BME280;50714;49.208;5.364;2023-07-20T23:21:12;99093.72;;;20.02;55.69
48027;BME280;50714;49.208;5.364;2023-07-20T23:31:14;99086.31;;;19.78;56.90
48027;BME280;50714;49.208;5.364;2023-07-20T23:41:14;99088.50;;;19.55;57.43
48027;BME280;50714;49.208;5.364;2023-07-20T23:51:15;99083.84;;;19.56;58.89
